createdAt,value
2016-10-31T00:00:01.816Z,-85
2016-10-31T00:01:01.670Z,-85
2016-10-31T00:02:01.816Z,-85
2016-10-31T00:03:01.804Z,-85
2016-10-31T00:04:01.924Z,-85
2016-10-31T00:05:01.811Z,-85
2016-10-31T00:06:01.616Z,-85
2016-10-31T00:07:01.962Z,-85
2016-10-31T00:08:01.943Z,-85
2016-10-31T00:09:01.930Z,-85
2016-10-31T00:10:01.715Z,-85
2016-10-31T00:11:01.851Z,-85
2016-10-31T00:12:01.803Z,-84
2016-10-31T00:13:01.884Z,-85
2016-10-31T00:14:01.722Z,-85
2016-10-31T00:15:01.886Z,-85
2016-10-31T00:16:01.757Z,-85
2016-10-31T00:17:01.880Z,-85
2016-10-31T00:18:02.104Z,-85
2016-10-31T00:19:01.731Z,-85
2016-10-31T00:20:01.725Z,-85
2016-10-31T00:21:01.883Z,-85
2016-10-31T00:22:01.720Z,-85
2016-10-31T00:23:01.903Z,-85
2016-10-31T00:24:01.856Z,-85
2016-10-31T00:25:01.696Z,-85
2016-10-31T00:26:01.846Z,-85
2016-10-31T00:27:02.033Z,-85
2016-10-31T00:28:01.736Z,-85
2016-10-31T00:29:01.896Z,-85
2016-10-31T00:30:01.654Z,-85
2016-10-31T00:31:01.805Z,-85
2016-10-31T00:32:02.018Z,-85
2016-10-31T00:33:01.766Z,-85
2016-10-31T00:34:02.062Z,-85
2016-10-31T00:35:02.045Z,-85
2016-10-31T00:36:01.869Z,-85
2016-10-31T00:37:01.918Z,-84
2016-10-31T00:38:01.905Z,-85
2016-10-31T00:39:01.791Z,-85
2016-10-31T00:40:02.041Z,-85
2016-10-31T00:41:01.795Z,-85
2016-10-31T00:42:01.652Z,-85
2016-10-31T00:43:01.919Z,-84
2016-10-31T00:44:01.772Z,-85
2016-10-31T00:45:01.792Z,-85
2016-10-31T00:46:01.916Z,-85
2016-10-31T00:47:02.051Z,-85
2016-10-31T00:48:01.800Z,-85
2016-10-31T00:49:02.047Z,-85
2016-10-31T00:50:01.815Z,-85
2016-10-31T00:51:02.083Z,-85
2016-10-31T00:52:01.999Z,-85
2016-10-31T00:53:01.736Z,-85
2016-10-31T00:54:01.839Z,-85
2016-10-31T00:55:02.003Z,-85
2016-10-31T00:56:01.966Z,-85
2016-10-31T00:57:01.930Z,-85
2016-10-31T00:58:02.076Z,-85
2016-10-31T00:59:01.954Z,-85
2016-10-31T01:00:01.946Z,-85
2016-10-31T01:01:01.758Z,-85
2016-10-31T01:02:01.966Z,-85
2016-10-31T01:03:02.103Z,-85
2016-10-31T01:04:01.897Z,-85
2016-10-31T01:05:02.034Z,-85
2016-10-31T01:06:01.880Z,-85
2016-10-31T01:07:01.823Z,-85
2016-10-31T01:08:01.996Z,-85
2016-10-31T01:09:01.753Z,-85
2016-10-31T01:10:02.039Z,-85
2016-10-31T01:11:01.997Z,-85
2016-10-31T01:12:01.995Z,-85
2016-10-31T01:13:01.991Z,-85
2016-10-31T01:14:02.167Z,-85
2016-10-31T01:15:01.877Z,-85
2016-10-31T01:16:01.791Z,-85
2016-10-31T01:17:01.862Z,-85
2016-10-31T01:18:01.869Z,-85
2016-10-31T01:19:01.778Z,-85
2016-10-31T01:20:02.148Z,-86
2016-10-31T01:21:01.902Z,-85
2016-10-31T01:22:02.359Z,-85
2016-10-31T01:23:02.140Z,-85
2016-10-31T01:24:01.779Z,-85
2016-10-31T01:25:02.002Z,-85
2016-10-31T01:26:02.007Z,-85
2016-10-31T01:27:02.054Z,-85
2016-10-31T01:28:02.151Z,-85
2016-10-31T01:29:02.165Z,-85
2016-10-31T01:30:02.063Z,-85
2016-10-31T01:31:02.166Z,-85
2016-10-31T01:32:01.862Z,-85
2016-10-31T01:33:01.954Z,-85
2016-10-31T01:34:02.099Z,-86
2016-10-31T01:35:01.927Z,-85
2016-10-31T01:36:01.948Z,-85
2016-10-31T01:37:02.185Z,-85
2016-10-31T01:38:02.320Z,-85
2016-10-31T01:39:02.083Z,-84
2016-10-31T01:40:01.950Z,-85
2016-10-31T01:41:01.953Z,-85
2016-10-31T01:42:02.042Z,-85
2016-10-31T01:43:02.113Z,-85
2016-10-31T01:44:02.062Z,-85
2016-10-31T01:45:02.105Z,-85
2016-10-31T01:46:01.855Z,-85
2016-10-31T01:47:02.119Z,-85
2016-10-31T01:48:01.958Z,-85
2016-10-31T01:49:02.236Z,-85
2016-10-31T01:50:01.965Z,-85
2016-10-31T01:51:02.164Z,-85
2016-10-31T01:52:02.069Z,-85
2016-10-31T01:53:02.113Z,-85
2016-10-31T01:54:02.127Z,-85
2016-10-31T01:55:01.952Z,-85
2016-10-31T01:56:02.002Z,-85
2016-10-31T01:57:02.246Z,-85
2016-10-31T01:58:02.147Z,-85
2016-10-31T01:59:02.151Z,-85
2016-10-31T02:00:02.142Z,-85
2016-10-31T02:01:02.093Z,-85
2016-10-31T02:02:02.135Z,-85
2016-10-31T02:03:02.051Z,-85
2016-10-31T02:04:02.155Z,-85
2016-10-31T02:05:01.979Z,-85
2016-10-31T02:06:02.061Z,-85
2016-10-31T02:07:01.832Z,-85
2016-10-31T02:08:02.053Z,-85
2016-10-31T02:09:02.047Z,-85
2016-10-31T02:10:02.397Z,-85
2016-10-31T02:11:02.184Z,-85
2016-10-31T02:12:02.007Z,-85
2016-10-31T02:13:02.178Z,-85
2016-10-31T02:14:02.171Z,-85
2016-10-31T02:15:02.216Z,-85
2016-10-31T02:16:02.003Z,-85
2016-10-31T02:17:01.892Z,-85
2016-10-31T02:18:01.938Z,-85
2016-10-31T02:19:02.162Z,-85
2016-10-31T02:20:02.191Z,-85
2016-10-31T02:21:02.137Z,-85
2016-10-31T02:22:01.944Z,-85
2016-10-31T02:23:02.299Z,-85
2016-10-31T02:24:02.147Z,-85
2016-10-31T02:25:02.073Z,-85
2016-10-31T02:26:02.033Z,-86
2016-10-31T02:27:02.078Z,-85
2016-10-31T02:28:01.966Z,-85
2016-10-31T02:29:02.005Z,-85
2016-10-31T02:30:01.967Z,-85
2016-10-31T02:31:02.206Z,-85
2016-10-31T02:32:02.334Z,-85
2016-10-31T02:33:02.330Z,-85
2016-10-31T02:34:02.346Z,-85
2016-10-31T02:35:02.102Z,-85
2016-10-31T02:36:02.288Z,-85
2016-10-31T02:37:02.147Z,-85
2016-10-31T02:38:02.118Z,-85
2016-10-31T02:39:02.246Z,-85
2016-10-31T02:40:02.258Z,-85
2016-10-31T02:41:01.935Z,-85
2016-10-31T02:42:02.320Z,-85
2016-10-31T02:43:02.285Z,-85
2016-10-31T02:44:02.265Z,-85
2016-10-31T02:45:02.144Z,-85
2016-10-31T02:46:02.106Z,-85
2016-10-31T02:47:02.253Z,-85
2016-10-31T02:48:02.387Z,-85
2016-10-31T02:49:02.284Z,-85
2016-10-31T02:50:02.139Z,-85
2016-10-31T02:51:02.402Z,-85
2016-10-31T02:52:02.253Z,-85
2016-10-31T02:53:02.299Z,-85
2016-10-31T02:54:02.274Z,-85
2016-10-31T02:55:02.202Z,-85
2016-10-31T02:56:02.003Z,-85
2016-10-31T02:57:02.261Z,-85
2016-10-31T02:58:02.539Z,-85
2016-10-31T02:59:02.323Z,-85
2016-10-31T03:00:02.284Z,-85
2016-10-31T03:01:02.125Z,-85
2016-10-31T03:02:02.146Z,-85
2016-10-31T03:03:02.355Z,-85
2016-10-31T03:04:02.117Z,-85
2016-10-31T03:05:02.331Z,-85
2016-10-31T03:06:02.004Z,-85
2016-10-31T03:07:02.194Z,-85
2016-10-31T03:08:02.217Z,-85
2016-10-31T03:09:02.361Z,-85
2016-10-31T03:10:02.255Z,-85
2016-10-31T03:11:02.342Z,-85
2016-10-31T03:12:02.241Z,-85
2016-10-31T03:13:02.071Z,-85
2016-10-31T03:14:02.344Z,-85
2016-10-31T03:15:02.314Z,-85
2016-10-31T03:16:02.067Z,-85
2016-10-31T03:17:02.087Z,-84
2016-10-31T03:18:02.373Z,-85
2016-10-31T03:19:02.264Z,-85
2016-10-31T03:20:02.334Z,-85
2016-10-31T03:21:02.392Z,-84
2016-10-31T03:22:02.335Z,-85
2016-10-31T03:23:02.356Z,-84
2016-10-31T03:24:02.503Z,-84
2016-10-31T03:25:02.438Z,-84
2016-10-31T03:26:02.253Z,-84
2016-10-31T03:27:02.173Z,-84
2016-10-31T03:28:02.266Z,-84
2016-10-31T03:29:02.243Z,-85
2016-10-31T03:30:02.406Z,-85
2016-10-31T03:31:02.509Z,-85
2016-10-31T03:32:02.509Z,-85
2016-10-31T03:33:02.500Z,-85
2016-10-31T03:34:02.416Z,-85
2016-10-31T03:35:02.397Z,-85
2016-10-31T03:36:02.143Z,-85
2016-10-31T03:37:02.312Z,-85
2016-10-31T03:38:02.408Z,-84
2016-10-31T03:39:02.282Z,-85
2016-10-31T03:40:02.419Z,-85
2016-10-31T03:41:02.449Z,-85
2016-10-31T03:42:02.395Z,-85
2016-10-31T03:43:02.556Z,-85
2016-10-31T03:44:02.264Z,-85
2016-10-31T03:45:02.550Z,-85
2016-10-31T03:46:02.563Z,-85
2016-10-31T03:47:02.564Z,-84
2016-10-31T03:48:02.480Z,-84
2016-10-31T03:49:02.429Z,-85
2016-10-31T03:50:02.284Z,-85
2016-10-31T03:51:02.355Z,-85
2016-10-31T03:52:02.421Z,-85
2016-10-31T03:53:02.472Z,-85
2016-10-31T03:54:02.277Z,-85
2016-10-31T03:55:02.496Z,-85
2016-10-31T03:56:02.448Z,-85
2016-10-31T03:57:02.351Z,-85
2016-10-31T03:58:02.487Z,-85
2016-10-31T03:59:02.454Z,-86
2016-10-31T04:00:02.553Z,-85
2016-10-31T04:01:02.461Z,-85
2016-10-31T04:02:02.487Z,-85
2016-10-31T04:03:02.374Z,-85
2016-10-31T04:04:02.495Z,-85
2016-10-31T04:05:02.503Z,-85
2016-10-31T04:06:02.358Z,-85
2016-10-31T04:07:02.366Z,-85
2016-10-31T04:08:02.491Z,-85
2016-10-31T04:09:02.327Z,-85
2016-10-31T04:10:02.341Z,-85
2016-10-31T04:11:02.381Z,-85
2016-10-31T04:12:02.340Z,-85
2016-10-31T04:13:02.646Z,-85
2016-10-31T04:14:02.399Z,-85
2016-10-31T04:15:02.507Z,-85
2016-10-31T04:16:02.667Z,-85
2016-10-31T04:17:02.499Z,-85
2016-10-31T04:18:02.414Z,-85
2016-10-31T04:19:02.512Z,-84
2016-10-31T04:20:02.471Z,-85
2016-10-31T04:21:02.408Z,-85
2016-10-31T04:22:02.555Z,-85
2016-10-31T04:23:02.544Z,-85
2016-10-31T04:24:02.563Z,-85
2016-10-31T04:25:02.275Z,-85
2016-10-31T04:26:02.540Z,-85
2016-10-31T04:27:02.660Z,-85
2016-10-31T04:28:02.245Z,-85
2016-10-31T04:29:02.536Z,-84
2016-10-31T04:30:02.420Z,-84
2016-10-31T04:31:02.397Z,-85
2016-10-31T04:32:02.350Z,-84
2016-10-31T04:33:02.431Z,-85
2016-10-31T04:34:02.849Z,-84
2016-10-31T04:35:02.559Z,-85
2016-10-31T04:36:02.333Z,-85
2016-10-31T04:37:02.507Z,-84
2016-10-31T04:38:02.443Z,-85
2016-10-31T04:39:02.514Z,-84
2016-10-31T04:40:02.614Z,-85
2016-10-31T04:41:02.394Z,-85
2016-10-31T04:42:02.615Z,-84
2016-10-31T04:43:02.557Z,-85
2016-10-31T04:44:02.348Z,-85
2016-10-31T04:45:02.461Z,-84
2016-10-31T04:46:02.607Z,-84
2016-10-31T04:47:02.583Z,-84
2016-10-31T04:48:02.542Z,-84
2016-10-31T04:49:02.317Z,-85
2016-10-31T04:50:02.700Z,-84
2016-10-31T04:51:02.472Z,-85
2016-10-31T04:52:02.639Z,-85
2016-10-31T04:53:02.622Z,-84
2016-10-31T04:54:02.758Z,-85
2016-10-31T04:55:02.806Z,-84
2016-10-31T04:56:02.479Z,-84
2016-10-31T04:57:02.628Z,-84
2016-10-31T04:58:02.612Z,-84
2016-10-31T04:59:02.534Z,-84
2016-10-31T05:00:02.620Z,-85
2016-10-31T05:01:02.504Z,-85
2016-10-31T05:02:02.619Z,-84
2016-10-31T05:03:02.630Z,-84
2016-10-31T05:04:02.370Z,-84
2016-10-31T05:05:02.476Z,-84
2016-10-31T05:06:02.648Z,-85
2016-10-31T05:07:02.789Z,-84
2016-10-31T05:08:02.772Z,-85
2016-10-31T05:09:02.642Z,-84
2016-10-31T05:10:02.712Z,-84
2016-10-31T05:11:02.654Z,-84
2016-10-31T05:12:02.577Z,-85
2016-10-31T05:13:02.405Z,-84
2016-10-31T05:14:02.696Z,-84
2016-10-31T05:15:02.680Z,-85
2016-10-31T05:16:02.564Z,-84
2016-10-31T05:17:02.705Z,-85
2016-10-31T05:18:02.606Z,-84
2016-10-31T05:19:02.717Z,-84
2016-10-31T05:20:02.722Z,-84
2016-10-31T05:21:02.748Z,-84
2016-10-31T05:22:02.936Z,-85
2016-10-31T05:23:02.563Z,-84
2016-10-31T05:24:02.740Z,-84
2016-10-31T05:25:02.732Z,-84
2016-10-31T05:26:02.652Z,-85
2016-10-31T05:27:02.625Z,-84
2016-10-31T05:28:02.601Z,-84
2016-10-31T05:29:02.696Z,-84
2016-10-31T05:30:02.845Z,-85
2016-10-31T05:31:02.605Z,-85
2016-10-31T05:32:02.592Z,-85
2016-10-31T05:33:02.668Z,-85
2016-10-31T05:34:02.735Z,-85
2016-10-31T05:35:02.708Z,-84
2016-10-31T05:36:02.611Z,-84
2016-10-31T05:37:02.719Z,-85
2016-10-31T05:38:02.876Z,-84
2016-10-31T05:39:02.866Z,-85
2016-10-31T05:40:02.659Z,-85
2016-10-31T05:41:02.872Z,-85
2016-10-31T05:42:02.677Z,-84
2016-10-31T05:43:02.829Z,-84
2016-10-31T05:44:02.808Z,-84
2016-10-31T05:45:02.659Z,-84
2016-10-31T05:46:02.684Z,-84
2016-10-31T05:47:02.749Z,-84
2016-10-31T05:48:02.793Z,-84
2016-10-31T05:49:02.775Z,-85
2016-10-31T05:50:02.806Z,-85
2016-10-31T05:51:02.827Z,-84
2016-10-31T05:52:02.946Z,-84
2016-10-31T05:53:02.923Z,-84
2016-10-31T05:54:03.033Z,-84
2016-10-31T05:55:02.665Z,-84
2016-10-31T05:56:02.636Z,-85
2016-10-31T05:57:02.682Z,-85
2016-10-31T05:58:02.803Z,-84
2016-10-31T05:59:02.623Z,-85
2016-10-31T06:00:02.695Z,-85
2016-10-31T06:01:02.522Z,-85
2016-10-31T06:02:02.829Z,-85
2016-10-31T06:03:02.926Z,-84
2016-10-31T06:04:02.641Z,-85
2016-10-31T06:05:02.752Z,-85
2016-10-31T06:06:02.828Z,-84
2016-10-31T06:07:02.692Z,-84
2016-10-31T06:08:02.851Z,-84
2016-10-31T06:09:02.942Z,-84
2016-10-31T06:10:02.852Z,-85
2016-10-31T06:11:02.854Z,-84
2016-10-31T06:12:02.563Z,-85
2016-10-31T06:13:02.580Z,-85
2016-10-31T06:14:02.863Z,-84
2016-10-31T06:15:03.012Z,-85
2016-10-31T06:16:02.856Z,-84
2016-10-31T06:17:02.840Z,-85
2016-10-31T06:18:02.878Z,-84
2016-10-31T06:19:02.637Z,-84
2016-10-31T06:20:02.784Z,-85
2016-10-31T06:21:02.919Z,-85
2016-10-31T06:22:02.888Z,-85
2016-10-31T06:23:02.907Z,-84
2016-10-31T06:24:02.922Z,-84
2016-10-31T06:25:02.698Z,-85
2016-10-31T06:26:02.959Z,-84
2016-10-31T06:27:02.784Z,-85
2016-10-31T06:28:03.018Z,-85
2016-10-31T06:29:03.025Z,-85
2016-10-31T06:30:02.726Z,-84
2016-10-31T06:31:02.896Z,-84
2016-10-31T06:32:02.748Z,-85
2016-10-31T06:33:02.846Z,-84
2016-10-31T06:34:02.860Z,-85
2016-10-31T06:35:03.063Z,-84
2016-10-31T06:36:02.892Z,-85
2016-10-31T06:37:02.840Z,-85
2016-10-31T06:38:02.838Z,-84
2016-10-31T06:39:02.889Z,-84
2016-10-31T06:40:02.790Z,-84
2016-10-31T06:41:02.897Z,-84
2016-10-31T06:42:03.219Z,-84
2016-10-31T06:43:02.707Z,-84
2016-10-31T06:44:02.800Z,-84
2016-10-31T06:45:02.932Z,-84
2016-10-31T06:46:02.848Z,-85
2016-10-31T06:47:02.836Z,-85
2016-10-31T06:48:02.708Z,-85
2016-10-31T06:49:02.859Z,-84
2016-10-31T06:50:02.835Z,-84
2016-10-31T06:51:02.830Z,-84
2016-10-31T06:52:02.841Z,-85
2016-10-31T06:53:02.794Z,-85
2016-10-31T06:54:02.868Z,-84
2016-10-31T06:55:02.810Z,-85
2016-10-31T06:56:02.812Z,-85
2016-10-31T06:57:03.088Z,-85
2016-10-31T06:58:03.060Z,-84
2016-10-31T06:59:02.829Z,-84
2016-10-31T07:00:02.862Z,-85
2016-10-31T07:01:02.738Z,-85
2016-10-31T07:02:02.962Z,-85
2016-10-31T07:03:02.841Z,-84
2016-10-31T07:04:02.860Z,-85
2016-10-31T07:05:03.171Z,-86
2016-10-31T07:06:02.977Z,-85
2016-10-31T07:07:03.053Z,-85
2016-10-31T07:08:02.984Z,-85
2016-10-31T07:09:03.037Z,-85
2016-10-31T07:10:03.131Z,-85
2016-10-31T07:11:03.073Z,-85
2016-10-31T07:12:02.867Z,-85
2016-10-31T07:13:03.022Z,-85
2016-10-31T07:14:02.920Z,-85
2016-10-31T07:15:03.065Z,-85
2016-10-31T07:16:03.044Z,-84
2016-10-31T07:17:03.005Z,-85
2016-10-31T07:18:02.838Z,-85
2016-10-31T07:19:03.027Z,-85
2016-10-31T07:20:03.046Z,-85
2016-10-31T07:21:02.954Z,-86
2016-10-31T07:22:03.024Z,-85
2016-10-31T07:23:03.208Z,-85
2016-10-31T07:24:02.922Z,-85
2016-10-31T07:25:02.925Z,-85
2016-10-31T07:26:02.810Z,-85
2016-10-31T07:27:02.865Z,-85
2016-10-31T07:28:02.911Z,-85
2016-10-31T07:29:02.988Z,-85
2016-10-31T07:30:03.040Z,-85
2016-10-31T07:31:02.765Z,-86
2016-10-31T07:32:03.040Z,-86
2016-10-31T07:33:02.904Z,-85
2016-10-31T07:34:03.063Z,-85
2016-10-31T07:35:03.093Z,-85
2016-10-31T07:36:03.127Z,-85
2016-10-31T07:37:02.946Z,-85
2016-10-31T07:38:03.203Z,-85
2016-10-31T07:39:02.953Z,-85
2016-10-31T07:40:03.098Z,-85
2016-10-31T07:41:03.219Z,-85
2016-10-31T07:42:02.965Z,-85
2016-10-31T07:43:03.138Z,-85
2016-10-31T07:44:03.065Z,-85
2016-10-31T07:45:03.219Z,-85
2016-10-31T07:46:03.184Z,-85
2016-10-31T07:47:03.035Z,-85
2016-10-31T07:48:03.032Z,-85
2016-10-31T07:49:03.040Z,-85
2016-10-31T07:50:03.495Z,-85
2016-10-31T07:51:03.240Z,-85
2016-10-31T07:52:03.126Z,-85
2016-10-31T07:53:02.949Z,-85
2016-10-31T07:54:03.030Z,-85
2016-10-31T07:55:03.024Z,-86
2016-10-31T07:56:03.208Z,-86
2016-10-31T07:57:03.306Z,-85
2016-10-31T07:58:02.995Z,-85
2016-10-31T07:59:03.111Z,-85
2016-10-31T08:00:03.040Z,-85
2016-10-31T08:01:02.863Z,-85
2016-10-31T08:02:03.081Z,-85
2016-10-31T08:03:02.992Z,-85
2016-10-31T08:04:03.165Z,-85
2016-10-31T08:05:03.024Z,-85
2016-10-31T08:06:03.051Z,-85
2016-10-31T08:07:03.073Z,-85
2016-10-31T08:08:03.184Z,-86
2016-10-31T08:09:03.066Z,-85
2016-10-31T08:10:03.059Z,-85
2016-10-31T08:11:03.236Z,-85
2016-10-31T08:12:03.041Z,-85
2016-10-31T08:13:03.070Z,-85
2016-10-31T08:14:03.339Z,-85
2016-10-31T08:15:03.201Z,-85
2016-10-31T08:16:03.060Z,-85
2016-10-31T08:17:03.358Z,-85
2016-10-31T08:18:03.265Z,-85
2016-10-31T08:19:03.077Z,-86
2016-10-31T08:20:03.041Z,-86
2016-10-31T08:21:02.950Z,-86
2016-10-31T08:22:03.324Z,-87
2016-10-31T08:23:03.832Z,-87
2016-10-31T08:24:03.070Z,-87
2016-10-31T08:25:03.135Z,-88
2016-10-31T08:26:03.038Z,-87
2016-10-31T08:27:03.136Z,-88
2016-10-31T08:28:03.238Z,-88
2016-10-31T08:29:03.393Z,-88
2016-10-31T08:30:03.354Z,-87
2016-10-31T08:31:02.919Z,-87
2016-10-31T08:32:03.474Z,-87
2016-10-31T08:33:03.111Z,-88
2016-10-31T08:34:03.457Z,-87
2016-10-31T08:35:04.355Z,-88
2016-10-31T08:36:02.969Z,-88
2016-10-31T08:37:03.262Z,-88
2016-10-31T08:38:03.168Z,-88
2016-10-31T08:39:03.482Z,-87
2016-10-31T08:40:03.036Z,-88
2016-10-31T08:41:03.088Z,-88
2016-10-31T08:42:03.078Z,-87
2016-10-31T08:43:03.136Z,-88
2016-10-31T08:44:03.021Z,-88
2016-10-31T08:45:03.588Z,-88
2016-10-31T08:46:03.176Z,-88
2016-10-31T08:47:03.275Z,-88
2016-10-31T08:48:03.049Z,-88
2016-10-31T08:49:03.322Z,-88
2016-10-31T08:50:04.881Z,-87
2016-10-31T08:51:03.273Z,-88
2016-10-31T08:52:03.403Z,-88
2016-10-31T08:53:03.281Z,-88
2016-10-31T08:54:03.169Z,-86
2016-10-31T08:55:03.334Z,-86
2016-10-31T08:56:03.397Z,-86
2016-10-31T08:57:03.199Z,-86
2016-10-31T08:58:03.285Z,-86
2016-10-31T08:59:03.196Z,-86
2016-10-31T09:00:03.350Z,-86
2016-10-31T09:01:03.659Z,-86
2016-10-31T09:02:04.160Z,-86
2016-10-31T09:03:03.490Z,-86
2016-10-31T09:04:03.285Z,-86
2016-10-31T09:05:03.532Z,-86
2016-10-31T09:06:03.594Z,-86
2016-10-31T09:07:03.630Z,-86
2016-10-31T09:08:03.357Z,-86
2016-10-31T09:09:03.370Z,-86
2016-10-31T09:10:03.526Z,-86
2016-10-31T09:11:03.417Z,-86
2016-10-31T09:12:03.533Z,-84
2016-10-31T09:13:03.336Z,-84
2016-10-31T09:14:03.427Z,-84
2016-10-31T09:15:03.388Z,-84
2016-10-31T09:16:03.536Z,-84
2016-10-31T09:17:03.405Z,-84
2016-10-31T09:18:03.415Z,-84
2016-10-31T09:19:05.699Z,-85
2016-10-31T09:20:03.271Z,-84
2016-10-31T09:21:03.347Z,-84
2016-10-31T09:22:03.411Z,-84
2016-10-31T09:23:09.804Z,-84
2016-10-31T09:24:03.452Z,-84
2016-10-31T09:25:03.330Z,-84
2016-10-31T09:26:03.160Z,-85
2016-10-31T09:27:03.353Z,-85
2016-10-31T09:28:03.497Z,-85
2016-10-31T09:29:03.258Z,-85
2016-10-31T09:30:03.119Z,-85
2016-10-31T09:31:03.130Z,-86
2016-10-31T09:32:03.619Z,-85
2016-10-31T09:33:03.335Z,-85
2016-10-31T09:34:03.455Z,-84
2016-10-31T09:35:03.531Z,-84
2016-10-31T09:36:03.470Z,-86
2016-10-31T09:37:03.305Z,-82
2016-10-31T09:38:03.296Z,-83
2016-10-31T09:39:03.331Z,-82
2016-10-31T09:40:03.520Z,-82
2016-10-31T09:41:03.238Z,-83
2016-10-31T09:42:03.293Z,-83
2016-10-31T09:43:03.279Z,-83
2016-10-31T09:44:03.206Z,-83
2016-10-31T09:45:03.463Z,-82
2016-10-31T09:46:03.268Z,-82
2016-10-31T09:47:03.596Z,-82
2016-10-31T09:48:03.507Z,-82
2016-10-31T09:49:03.542Z,-83
2016-10-31T09:50:03.340Z,-83
2016-10-31T09:51:03.355Z,-83
2016-10-31T09:52:03.478Z,-83
2016-10-31T09:53:03.523Z,-83
2016-10-31T09:54:03.566Z,-83
2016-10-31T09:55:03.369Z,-83
2016-10-31T09:56:03.355Z,-83
2016-10-31T09:57:03.507Z,-83
2016-10-31T09:58:03.519Z,-83
2016-10-31T09:59:03.488Z,-83
2016-10-31T10:00:03.488Z,-83
2016-10-31T10:01:03.444Z,-83
2016-10-31T10:02:03.539Z,-83
2016-10-31T10:03:03.314Z,-83
2016-10-31T10:04:03.516Z,-83
2016-10-31T10:05:03.523Z,-83
2016-10-31T10:06:03.562Z,-83
2016-10-31T10:07:03.276Z,-83
2016-10-31T10:08:03.587Z,-83
2016-10-31T10:09:03.635Z,-83
2016-10-31T10:10:04.017Z,-83
2016-10-31T10:11:03.247Z,-83
2016-10-31T10:12:03.588Z,-83
2016-10-31T10:13:03.770Z,-83
2016-10-31T10:14:03.546Z,-83
2016-10-31T10:15:03.566Z,-83
2016-10-31T10:16:03.419Z,-83
2016-10-31T10:17:03.654Z,-83
2016-10-31T10:18:04.369Z,-83
2016-10-31T10:19:03.995Z,-83
2016-10-31T10:20:03.698Z,-83
2016-10-31T10:21:03.451Z,-83
2016-10-31T10:22:03.684Z,-83
2016-10-31T10:23:03.590Z,-83
2016-10-31T10:24:03.380Z,-83
2016-10-31T10:25:03.685Z,-83
2016-10-31T10:26:03.659Z,-83
2016-10-31T10:27:04.937Z,-83
2016-10-31T10:28:03.738Z,-83
2016-10-31T10:29:03.783Z,-83
2016-10-31T10:30:03.577Z,-83
2016-10-31T10:31:03.550Z,-83
2016-10-31T10:32:03.654Z,-83
2016-10-31T10:33:03.631Z,-83
2016-10-31T10:34:03.726Z,-83
2016-10-31T10:35:03.829Z,-83
2016-10-31T10:36:03.594Z,-83
2016-10-31T10:37:03.662Z,-83
2016-10-31T10:38:03.671Z,-82
2016-10-31T10:39:04.736Z,-83
2016-10-31T10:40:03.845Z,-83
2016-10-31T10:41:03.619Z,-83
2016-10-31T10:42:03.739Z,-83
2016-10-31T10:43:03.543Z,-83
2016-10-31T10:44:04.404Z,-83
2016-10-31T10:45:03.568Z,-84
2016-10-31T10:46:03.821Z,-83
2016-10-31T10:47:03.564Z,-84
2016-10-31T10:48:03.771Z,-83
2016-10-31T10:49:03.725Z,-84
2016-10-31T10:50:03.633Z,-83
2016-10-31T10:51:03.525Z,-83
2016-10-31T10:52:03.434Z,-83
2016-10-31T10:53:03.865Z,-83
2016-10-31T10:54:03.618Z,-84
2016-10-31T10:55:03.499Z,-82
2016-10-31T10:56:03.817Z,-83
2016-10-31T10:57:03.657Z,-82
2016-10-31T10:58:04.110Z,-82
2016-10-31T10:59:03.639Z,-82
2016-10-31T11:00:03.661Z,-82
2016-10-31T11:01:03.771Z,-83
2016-10-31T11:02:04.394Z,-83
2016-10-31T11:03:03.591Z,-83
2016-10-31T11:04:03.878Z,-82
2016-10-31T11:05:03.536Z,-83
2016-10-31T11:06:03.676Z,-82
2016-10-31T11:07:04.266Z,-82
2016-10-31T11:08:03.736Z,-82
2016-10-31T11:09:05.037Z,-82
2016-10-31T11:10:03.792Z,-82
2016-10-31T11:11:03.725Z,-82
2016-10-31T11:12:03.793Z,-82
2016-10-31T11:13:03.473Z,-82
2016-10-31T11:14:03.853Z,-82
2016-10-31T11:15:03.752Z,-82
2016-10-31T11:16:03.648Z,-82
2016-10-31T11:17:03.485Z,-83
2016-10-31T11:18:03.548Z,-83
2016-10-31T11:19:03.617Z,-83
2016-10-31T11:20:03.759Z,-83
2016-10-31T11:21:03.605Z,-83
2016-10-31T11:22:03.887Z,-82
2016-10-31T11:23:03.696Z,-83
2016-10-31T11:24:03.700Z,-83
2016-10-31T11:25:03.583Z,-83
2016-10-31T11:26:03.732Z,-83
2016-10-31T11:27:03.746Z,-83
2016-10-31T11:28:03.735Z,-83
2016-10-31T11:29:03.743Z,-83
2016-10-31T11:30:03.724Z,-83
2016-10-31T11:31:03.813Z,-83
2016-10-31T11:32:03.650Z,-83
2016-10-31T11:33:03.891Z,-82
2016-10-31T11:34:04.135Z,-82
2016-10-31T11:35:04.296Z,-82
2016-10-31T11:36:03.703Z,-82
2016-10-31T11:37:03.737Z,-82
2016-10-31T11:38:03.756Z,-82
2016-10-31T11:39:04.025Z,-82
2016-10-31T11:40:03.734Z,-82
2016-10-31T11:41:03.687Z,-82
2016-10-31T11:42:03.894Z,-82
2016-10-31T11:43:03.706Z,-82
2016-10-31T11:44:03.772Z,-82
2016-10-31T11:45:03.647Z,-82
2016-10-31T11:46:03.807Z,-82
2016-10-31T11:47:03.803Z,-82
2016-10-31T11:48:03.724Z,-83
2016-10-31T11:49:03.809Z,-82
2016-10-31T11:50:03.946Z,-82
2016-10-31T11:51:03.946Z,-82
2016-10-31T11:52:03.845Z,-82
2016-10-31T11:53:03.790Z,-82
2016-10-31T11:54:03.683Z,-82
2016-10-31T11:55:03.709Z,-82
2016-10-31T11:56:03.589Z,-82
2016-10-31T11:57:03.869Z,-82
2016-10-31T11:58:03.900Z,-82
2016-10-31T11:59:03.871Z,-82
2016-10-31T12:00:03.883Z,-82
2016-10-31T12:01:04.032Z,-82
2016-10-31T12:02:03.867Z,-82
2016-10-31T12:03:03.896Z,-82
2016-10-31T12:04:03.762Z,-82
2016-10-31T12:05:03.910Z,-82
2016-10-31T12:06:03.643Z,-82
2016-10-31T12:07:03.965Z,-82
2016-10-31T12:08:04.077Z,-82
2016-10-31T12:09:03.738Z,-82
2016-10-31T12:10:04.603Z,-82
2016-10-31T12:11:03.910Z,-82
2016-10-31T12:12:03.658Z,-82
2016-10-31T12:13:03.626Z,-82
2016-10-31T12:14:03.831Z,-83
2016-10-31T12:15:04.064Z,-82
2016-10-31T12:16:03.864Z,-82
2016-10-31T12:17:03.722Z,-82
2016-10-31T12:18:04.164Z,-82
2016-10-31T12:19:03.807Z,-83
2016-10-31T12:20:03.919Z,-83
2016-10-31T12:21:03.668Z,-83
2016-10-31T12:22:03.815Z,-83
2016-10-31T12:23:03.835Z,-82
2016-10-31T12:24:03.839Z,-83
2016-10-31T12:25:03.765Z,-84
2016-10-31T12:26:04.035Z,-83
2016-10-31T12:27:03.683Z,-84
2016-10-31T12:28:03.873Z,-84
2016-10-31T12:29:05.807Z,-84
2016-10-31T12:30:03.787Z,-83
2016-10-31T12:31:03.803Z,-84
2016-10-31T12:32:04.121Z,-83
2016-10-31T12:33:04.245Z,-84
2016-10-31T12:34:04.139Z,-86
2016-10-31T12:35:04.460Z,-86
2016-10-31T12:36:03.999Z,-86
2016-10-31T12:37:03.955Z,-87
2016-10-31T12:38:03.978Z,-86
2016-10-31T12:39:04.847Z,-86
2016-10-31T12:40:03.889Z,-86
2016-10-31T12:41:03.916Z,-86
2016-10-31T12:42:04.145Z,-84
2016-10-31T12:43:03.803Z,-86
2016-10-31T12:44:04.049Z,-86
2016-10-31T12:45:04.156Z,-85
2016-10-31T12:46:03.980Z,-86
2016-10-31T12:47:04.020Z,-85
2016-10-31T12:48:03.777Z,-87
2016-10-31T12:49:03.886Z,-88
2016-10-31T12:50:03.991Z,-88
2016-10-31T12:51:03.761Z,-86
2016-10-31T12:52:04.030Z,-86
2016-10-31T12:53:03.897Z,-87
2016-10-31T12:54:04.077Z,-90
2016-10-31T12:55:06.245Z,-89
2016-10-31T12:56:04.057Z,-89
2016-10-31T12:57:03.973Z,-89
2016-10-31T12:58:03.897Z,-89
2016-10-31T12:59:03.888Z,-90
2016-10-31T13:00:03.724Z,-89
2016-10-31T13:01:03.932Z,-90
2016-10-31T13:02:04.078Z,-90
2016-10-31T13:03:04.217Z,-88
2016-10-31T13:04:04.255Z,-88
2016-10-31T13:05:03.930Z,-88
2016-10-31T13:06:04.272Z,-91
2016-10-31T13:07:03.864Z,-90
2016-10-31T13:08:04.132Z,-90
2016-10-31T13:09:04.034Z,-89
2016-10-31T13:10:04.128Z,-89
2016-10-31T13:11:04.213Z,-88
2016-10-31T13:12:03.959Z,-89
2016-10-31T13:13:04.006Z,-88
2016-10-31T13:14:04.132Z,-90
2016-10-31T13:15:04.121Z,-89
2016-10-31T13:16:04.068Z,-89
2016-10-31T13:17:03.927Z,-89
2016-10-31T13:18:04.261Z,-90
2016-10-31T13:19:04.099Z,-89
2016-10-31T13:20:03.832Z,-90
2016-10-31T13:21:04.848Z,-89
2016-10-31T13:22:04.350Z,-89
2016-10-31T13:23:03.975Z,-90
2016-10-31T13:24:04.217Z,-88
2016-10-31T13:25:04.079Z,-89
2016-10-31T13:26:04.229Z,-89
2016-10-31T13:27:04.168Z,-89
2016-10-31T13:28:03.997Z,-88
2016-10-31T13:29:04.266Z,-88
2016-10-31T13:30:03.979Z,-87
2016-10-31T13:31:04.465Z,-88
2016-10-31T13:32:04.066Z,-88
2016-10-31T13:33:03.997Z,-88
2016-10-31T13:34:03.961Z,-89
2016-10-31T13:35:03.989Z,-90
2016-10-31T13:36:03.882Z,-90
2016-10-31T13:37:04.075Z,-85
2016-10-31T13:38:04.244Z,-85
2016-10-31T13:39:04.159Z,-85
2016-10-31T13:40:04.210Z,-86
2016-10-31T13:41:04.089Z,-85
2016-10-31T13:42:04.254Z,-85
2016-10-31T13:43:04.461Z,-86
2016-10-31T13:44:04.067Z,-86
2016-10-31T13:45:04.296Z,-85
2016-10-31T13:46:04.039Z,-86